sensor_id;sensor_type;location;lat;lon;timestamp;P1;durP1;ratioP1;P2;durP2;ratioP2
77158;SDS011;66129;45.890;13.714;2023-03-01T00:00:39;13.02;;;7.00;;
77158;SDS011;66129;45.890;13.714;2023-03-01T00:03:08;13.73;;;7.45;;
77158;SDS011;66129;45.890;13.714;2023-03-01T00:05:52;14.18;;;8.27;;
77158;SDS011;66129;45.890;13.714;2023-03-01T00:08:30;13.98;;;6.88;;
77158;SDS011;66129;45.890;13.714;2023-03-01T00:14:14;11.73;;;5.97;;
77158;SDS011;66129;45.890;13.714;2023-03-01T00:16:49;10.38;;;5.85;;
77158;SDS011;66129;45.890;13.714;2023-03-01T00:19:19;13.07;;;7.95;;
77158;SDS011;66129;45.890;13.714;2023-03-01T00:21:56;11.27;;;7.15;;
77158;SDS011;66129;45.890;13.714;2023-03-01T00:24:34;10.07;;;6.75;;
77158;SDS011;66129;45.890;13.714;2023-03-01T00:27:13;10.82;;;6.20;;
77158;SDS011;66129;45.890;13.714;2023-03-01T00:32:20;14.23;;;7.57;;
77158;SDS011;66129;45.890;13.714;2023-03-01T00:34:57;13.77;;;7.40;;
77158;SDS011;66129;45.890;13.714;2023-03-01T00:40:18;13.40;;;6.07;;
77158;SDS011;66129;45.890;13.714;2023-03-01T00:42:46;14.90;;;7.22;;
77158;SDS011;66129;45.890;13.714;2023-03-01T00:45:12;10.65;;;6.15;;
77158;SDS011;66129;45.890;13.714;2023-03-01T00:47:45;11.57;;;6.47;;
77158;SDS011;66129;45.890;13.714;2023-03-01T00:50:15;10.00;;;6.03;;
77158;SDS011;66129;45.890;13.714;2023-03-01T00:53:11;12.73;;;6.82;;
77158;SDS011;66129;45.890;13.714;2023-03-01T00:56:29;11.75;;;5.78;;
77158;SDS011;66129;45.890;13.714;2023-03-01T00:59:30;13.05;;;7.22;;
77158;SDS011;66129;45.890;13.714;2023-03-01T01:02:20;14.75;;;6.32;;
77158;SDS011;66129;45.890;13.714;2023-03-01T01:05:03;13.50;;;7.00;;
77158;SDS011;66129;45.890;13.714;2023-03-01T01:10:37;13.30;;;7.05;;
77158;SDS011;66129;45.890;13.714;2023-03-01T01:13:21;11.27;;;7.13;;
77158;SDS011;66129;45.890;13.714;2023-03-01T01:16:09;16.65;;;7.47;;
77158;SDS011;66129;45.890;13.714;2023-03-01T01:18:37;15.82;;;7.95;;
77158;SDS011;66129;45.890;13.714;2023-03-01T01:21:08;13.52;;;7.88;;
77158;SDS011;66129;45.890;13.714;2023-03-01T01:23:58;15.30;;;7.85;;
77158;SDS011;66129;45.890;13.714;2023-03-01T01:26:28;15.57;;;7.07;;
77158;SDS011;66129;45.890;13.714;2023-03-01T01:29:03;13.35;;;8.20;;
77158;SDS011;66129;45.890;13.714;2023-03-01T01:31:42;15.02;;;7.82;;
77158;SDS011;66129;45.890;13.714;2023-03-01T01:34:51;11.18;;;7.80;;
77158;SDS011;66129;45.890;13.714;2023-03-01T01:37:41;18.55;;;7.30;;
77158;SDS011;66129;45.890;13.714;2023-03-01T01:40:16;14.27;;;7.50;;
77158;SDS011;66129;45.890;13.714;2023-03-01T01:42:57;17.67;;;8.32;;
77158;SDS011;66129;45.890;13.714;2023-03-01T01:45:31;11.15;;;6.88;;
77158;SDS011;66129;45.890;13.714;2023-03-01T01:48:04;14.05;;;7.60;;
77158;SDS011;66129;45.890;13.714;2023-03-01T01:50:54;15.25;;;8.18;;
77158;SDS011;66129;45.890;13.714;2023-03-01T01:56:42;12.95;;;6.50;;
77158;SDS011;66129;45.890;13.714;2023-03-01T01:59:18;11.85;;;6.00;;
77158;SDS011;66129;45.890;13.714;2023-03-01T02:01:49;11.77;;;7.05;;
77158;SDS011;66129;45.890;13.714;2023-03-01T02:04:16;14.15;;;7.35;;
77158;SDS011;66129;45.890;13.714;2023-03-01T02:06:46;11.30;;;7.07;;
77158;SDS011;66129;45.890;13.714;2023-03-01T02:09:17;14.68;;;7.30;;
77158;SDS011;66129;45.890;13.714;2023-03-01T02:11:45;13.45;;;8.57;;
77158;SDS011;66129;45.890;13.714;2023-03-01T02:14:16;13.70;;;7.45;;
77158;SDS011;66129;45.890;13.714;2023-03-01T02:16:42;12.77;;;7.10;;
77158;SDS011;66129;45.890;13.714;2023-03-01T02:19:25;16.75;;;7.43;;
77158;SDS011;66129;45.890;13.714;2023-03-01T02:31:14;11.63;;;8.27;;
77158;SDS011;66129;45.890;13.714;2023-03-01T02:34:02;15.57;;;6.53;;
77158;SDS011;66129;45.890;13.714;2023-03-01T02:39:40;16.67;;;7.93;;
77158;SDS011;66129;45.890;13.714;2023-03-01T02:42:14;14.32;;;7.65;;
77158;SDS011;66129;45.890;13.714;2023-03-01T02:45:00;11.30;;;6.53;;
77158;SDS011;66129;45.890;13.714;2023-03-01T02:49:57;11.73;;;5.82;;
77158;SDS011;66129;45.890;13.714;2023-03-01T02:55:57;14.38;;;7.07;;
77158;SDS011;66129;45.890;13.714;2023-03-01T02:58:33;14.48;;;8.45;;
77158;SDS011;66129;45.890;13.714;2023-03-01T03:01:19;14.98;;;7.60;;
77158;SDS011;66129;45.890;13.714;2023-03-01T03:07:14;11.82;;;7.60;;
77158;SDS011;66129;45.890;13.714;2023-03-01T03:10:00;11.68;;;6.13;;
77158;SDS011;66129;45.890;13.714;2023-03-01T03:15:58;17.50;;;8.15;;
77158;SDS011;66129;45.890;13.714;2023-03-01T03:18:24;19.05;;;7.82;;
77158;SDS011;66129;45.890;13.714;2023-03-01T03:21:16;10.77;;;6.63;;
77158;SDS011;66129;45.890;13.714;2023-03-01T03:24:14;11.48;;;6.72;;
77158;SDS011;66129;45.890;13.714;2023-03-01T03:26:46;21.45;;;9.02;;
77158;SDS011;66129;45.890;13.714;2023-03-01T03:29:11;14.65;;;7.75;;
77158;SDS011;66129;45.890;13.714;2023-03-01T03:31:43;11.35;;;6.80;;
77158;SDS011;66129;45.890;13.714;2023-03-01T03:37:19;10.07;;;6.00;;
77158;SDS011;66129;45.890;13.714;2023-03-01T03:40:08;15.48;;;7.55;;
77158;SDS011;66129;45.890;13.714;2023-03-01T03:42:56;16.50;;;7.60;;
77158;SDS011;66129;45.890;13.714;2023-03-01T03:45:23;13.23;;;7.72;;
77158;SDS011;66129;45.890;13.714;2023-03-01T03:51:19;13.60;;;6.18;;
77158;SDS011;66129;45.890;13.714;2023-03-01T03:53:47;16.67;;;8.02;;
77158;SDS011;66129;45.890;13.714;2023-03-01T03:56:22;11.85;;;6.93;;
77158;SDS011;66129;45.890;13.714;2023-03-01T03:58:51;11.68;;;6.53;;
77158;SDS011;66129;45.890;13.714;2023-03-01T04:01:43;14.13;;;6.70;;
77158;SDS011;66129;45.890;13.714;2023-03-01T04:04:18;10.38;;;6.55;;
77158;SDS011;66129;45.890;13.714;2023-03-01T04:07:13;11.63;;;6.57;;
77158;SDS011;66129;45.890;13.714;2023-03-01T04:09:38;12.60;;;6.53;;
77158;SDS011;66129;45.890;13.714;2023-03-01T04:12:04;12.30;;;8.05;;
77158;SDS011;66129;45.890;13.714;2023-03-01T04:14:29;14.25;;;7.05;;
77158;SDS011;66129;45.890;13.714;2023-03-01T04:17:02;14.55;;;7.13;;
77158;SDS011;66129;45.890;13.714;2023-03-01T04:19:40;13.05;;;8.30;;
77158;SDS011;66129;45.890;13.714;2023-03-01T04:22:19;16.02;;;8.93;;
77158;SDS011;66129;45.890;13.714;2023-03-01T04:27:39;14.35;;;9.02;;
77158;SDS011;66129;45.890;13.714;2023-03-01T04:30:06;12.02;;;6.72;;
77158;SDS011;66129;45.890;13.714;2023-03-01T04:32:49;14.77;;;7.93;;
77158;SDS011;66129;45.890;13.714;2023-03-01T04:35:38;11.98;;;6.43;;
77158;SDS011;66129;45.890;13.714;2023-03-01T04:38:04;12.63;;;7.10;;
77158;SDS011;66129;45.890;13.714;2023-03-01T04:40:41;13.30;;;5.85;;
77158;SDS011;66129;45.890;13.714;2023-03-01T04:43:23;12.73;;;6.82;;
77158;SDS011;66129;45.890;13.714;2023-03-01T04:45:54;15.15;;;7.60;;
77158;SDS011;66129;45.890;13.714;2023-03-01T04:48:44;11.27;;;6.78;;
77158;SDS011;66129;45.890;13.714;2023-03-01T04:51:22;16.20;;;7.97;;
77158;SDS011;66129;45.890;13.714;2023-03-01T04:53:49;13.52;;;7.40;;
77158;SDS011;66129;45.890;13.714;2023-03-01T04:56:39;15.38;;;6.45;;
77158;SDS011;66129;45.890;13.714;2023-03-01T05:01:44;11.80;;;6.65;;
77158;SDS011;66129;45.890;13.714;2023-03-01T05:04:09;13.63;;;6.88;;
77158;SDS011;66129;45.890;13.714;2023-03-01T05:06:43;19.45;;;8.35;;
77158;SDS011;66129;45.890;13.714;2023-03-01T05:09:12;15.88;;;7.55;;
77158;SDS011;66129;45.890;13.714;2023-03-01T05:11:48;13.35;;;8.25;;
77158;SDS011;66129;45.890;13.714;2023-03-01T05:14:30;11.82;;;7.05;;
77158;SDS011;66129;45.890;13.714;2023-03-01T05:17:26;14.55;;;7.22;;
77158;SDS011;66129;45.890;13.714;2023-03-01T05:20:29;13.02;;;6.57;;
77158;SDS011;66129;45.890;13.714;2023-03-01T05:26:39;10.48;;;5.78;;
77158;SDS011;66129;45.890;13.714;2023-03-01T05:29:07;12.90;;;7.40;;
77158;SDS011;66129;45.890;13.714;2023-03-01T05:31:34;13.45;;;8.07;;
77158;SDS011;66129;45.890;13.714;2023-03-01T05:34:00;9.35;;;5.78;;
77158;SDS011;66129;45.890;13.714;2023-03-01T05:36:28;13.50;;;7.43;;
77158;SDS011;66129;45.890;13.714;2023-03-01T05:38:53;10.32;;;6.50;;
77158;SDS011;66129;45.890;13.714;2023-03-01T05:41:19;12.57;;;6.40;;
77158;SDS011;66129;45.890;13.714;2023-03-01T05:43:44;10.27;;;6.43;;
77158;SDS011;66129;45.890;13.714;2023-03-01T05:46:10;14.93;;;6.15;;
77158;SDS011;66129;45.890;13.714;2023-03-01T05:48:37;11.25;;;6.35;;
77158;SDS011;66129;45.890;13.714;2023-03-01T05:51:03;13.43;;;6.25;;
77158;SDS011;66129;45.890;13.714;2023-03-01T05:53:29;10.43;;;6.88;;
77158;SDS011;66129;45.890;13.714;2023-03-01T05:55:55;12.20;;;6.78;;
77158;SDS011;66129;45.890;13.714;2023-03-01T05:58:20;12.23;;;7.38;;
77158;SDS011;66129;45.890;13.714;2023-03-01T06:00:57;10.05;;;5.80;;
77158;SDS011;66129;45.890;13.714;2023-03-01T06:03:22;8.93;;;5.22;;
77158;SDS011;66129;45.890;13.714;2023-03-01T06:05:55;12.65;;;5.93;;
77158;SDS011;66129;45.890;13.714;2023-03-01T06:08:21;15.70;;;7.10;;
77158;SDS011;66129;45.890;13.714;2023-03-01T06:10:47;13.48;;;6.32;;
77158;SDS011;66129;45.890;13.714;2023-03-01T06:13:13;13.70;;;6.25;;
77158;SDS011;66129;45.890;13.714;2023-03-01T06:15:38;15.60;;;7.40;;
77158;SDS011;66129;45.890;13.714;2023-03-01T06:18:06;12.23;;;6.78;;
77158;SDS011;66129;45.890;13.714;2023-03-01T06:20:32;11.73;;;6.25;;
77158;SDS011;66129;45.890;13.714;2023-03-01T06:22:57;13.30;;;6.53;;
77158;SDS011;66129;45.890;13.714;2023-03-01T06:25:25;8.63;;;5.93;;
77158;SDS011;66129;45.890;13.714;2023-03-01T06:27:51;9.02;;;5.07;;
77158;SDS011;66129;45.890;13.714;2023-03-01T06:30:26;10.80;;;5.82;;
77158;SDS011;66129;45.890;13.714;2023-03-01T06:32:52;13.18;;;6.88;;
77158;SDS011;66129;45.890;13.714;2023-03-01T06:35:23;10.75;;;6.57;;
77158;SDS011;66129;45.890;13.714;2023-03-01T06:37:51;7.97;;;5.75;;
77158;SDS011;66129;45.890;13.714;2023-03-01T06:40:16;9.23;;;5.72;;
77158;SDS011;66129;45.890;13.714;2023-03-01T06:42:43;14.63;;;6.90;;
77158;SDS011;66129;45.890;13.714;2023-03-01T06:45:13;14.15;;;6.65;;
77158;SDS011;66129;45.890;13.714;2023-03-01T06:47:47;16.15;;;8.65;;
77158;SDS011;66129;45.890;13.714;2023-03-01T06:50:14;13.50;;;6.57;;
77158;SDS011;66129;45.890;13.714;2023-03-01T06:52:40;10.38;;;6.93;;
77158;SDS011;66129;45.890;13.714;2023-03-01T06:55:08;13.23;;;6.05;;
77158;SDS011;66129;45.890;13.714;2023-03-01T06:57:34;15.80;;;7.18;;
77158;SDS011;66129;45.890;13.714;2023-03-01T07:00:03;10.13;;;6.20;;
77158;SDS011;66129;45.890;13.714;2023-03-01T07:02:33;23.40;;;6.95;;
77158;SDS011;66129;45.890;13.714;2023-03-01T07:05:00;12.98;;;6.70;;
77158;SDS011;66129;45.890;13.714;2023-03-01T07:07:26;14.35;;;7.72;;
77158;SDS011;66129;45.890;13.714;2023-03-01T07:09:51;13.68;;;6.15;;
77158;SDS011;66129;45.890;13.714;2023-03-01T07:12:18;16.38;;;7.70;;
77158;SDS011;66129;45.890;13.714;2023-03-01T07:14:43;13.20;;;6.93;;
77158;SDS011;66129;45.890;13.714;2023-03-01T07:17:09;11.93;;;6.32;;
77158;SDS011;66129;45.890;13.714;2023-03-01T07:19:35;11.00;;;4.82;;
77158;SDS011;66129;45.890;13.714;2023-03-01T07:22:00;13.48;;;6.80;;
77158;SDS011;66129;45.890;13.714;2023-03-01T07:24:26;15.65;;;8.55;;
77158;SDS011;66129;45.890;13.714;2023-03-01T07:26:51;12.35;;;6.53;;
77158;SDS011;66129;45.890;13.714;2023-03-01T07:29:18;13.57;;;6.97;;
77158;SDS011;66129;45.890;13.714;2023-03-01T07:31:44;12.65;;;7.05;;
77158;SDS011;66129;45.890;13.714;2023-03-01T07:34:10;8.60;;;6.07;;
77158;SDS011;66129;45.890;13.714;2023-03-01T07:36:41;14.00;;;6.55;;
77158;SDS011;66129;45.890;13.714;2023-03-01T07:39:09;9.00;;;5.80;;
77158;SDS011;66129;45.890;13.714;2023-03-01T07:41:39;11.63;;;5.65;;
77158;SDS011;66129;45.890;13.714;2023-03-01T07:44:04;11.75;;;5.70;;
77158;SDS011;66129;45.890;13.714;2023-03-01T07:46:39;12.05;;;6.25;;
77158;SDS011;66129;45.890;13.714;2023-03-01T07:49:05;10.75;;;7.10;;
77158;SDS011;66129;45.890;13.714;2023-03-01T07:51:30;9.27;;;6.32;;
77158;SDS011;66129;45.890;13.714;2023-03-01T07:53:56;12.20;;;6.70;;
77158;SDS011;66129;45.890;13.714;2023-03-01T07:56:24;9.00;;;4.55;;
77158;SDS011;66129;45.890;13.714;2023-03-01T07:58:51;9.50;;;6.45;;
77158;SDS011;66129;45.890;13.714;2023-03-01T08:01:18;12.73;;;5.93;;
77158;SDS011;66129;45.890;13.714;2023-03-01T08:03:49;14.45;;;6.68;;
77158;SDS011;66129;45.890;13.714;2023-03-01T08:06:16;9.38;;;5.70;;
77158;SDS011;66129;45.890;13.714;2023-03-01T08:08:42;8.55;;;5.28;;
77158;SDS011;66129;45.890;13.714;2023-03-01T08:11:10;13.15;;;5.32;;
77158;SDS011;66129;45.890;13.714;2023-03-01T08:13:37;11.40;;;6.78;;
77158;SDS011;66129;45.890;13.714;2023-03-01T08:16:03;10.52;;;6.30;;
77158;SDS011;66129;45.890;13.714;2023-03-01T08:18:31;16.23;;;7.32;;
77158;SDS011;66129;45.890;13.714;2023-03-01T08:21:04;10.27;;;5.78;;
77158;SDS011;66129;45.890;13.714;2023-03-01T08:23:34;11.40;;;6.28;;
77158;SDS011;66129;45.890;13.714;2023-03-01T08:26:08;9.10;;;5.28;;
77158;SDS011;66129;45.890;13.714;2023-03-01T08:28:42;15.85;;;6.72;;
77158;SDS011;66129;45.890;13.714;2023-03-01T08:33:47;8.38;;;4.80;;
77158;SDS011;66129;45.890;13.714;2023-03-01T08:36:20;11.65;;;5.30;;
77158;SDS011;66129;45.890;13.714;2023-03-01T08:38:46;8.32;;;5.93;;
77158;SDS011;66129;45.890;13.714;2023-03-01T08:41:11;13.93;;;6.00;;
77158;SDS011;66129;45.890;13.714;2023-03-01T08:43:37;9.95;;;5.57;;
77158;SDS011;66129;45.890;13.714;2023-03-01T08:46:02;13.55;;;5.80;;
77158;SDS011;66129;45.890;13.714;2023-03-01T08:48:30;10.88;;;5.93;;
77158;SDS011;66129;45.890;13.714;2023-03-01T08:51:11;7.75;;;5.50;;
77158;SDS011;66129;45.890;13.714;2023-03-01T08:53:39;7.95;;;4.32;;
77158;SDS011;66129;45.890;13.714;2023-03-01T08:56:05;8.07;;;5.28;;
77158;SDS011;66129;45.890;13.714;2023-03-01T08:58:31;9.10;;;5.10;;
77158;SDS011;66129;45.890;13.714;2023-03-01T09:00:56;11.95;;;5.55;;
77158;SDS011;66129;45.890;13.714;2023-03-01T09:03:22;10.63;;;5.60;;
77158;SDS011;66129;45.890;13.714;2023-03-01T09:05:49;8.80;;;5.40;;
77158;SDS011;66129;45.890;13.714;2023-03-01T09:08:15;8.35;;;4.93;;
77158;SDS011;66129;45.890;13.714;2023-03-01T09:10:44;14.05;;;5.57;;
77158;SDS011;66129;45.890;13.714;2023-03-01T09:13:10;7.50;;;4.70;;
77158;SDS011;66129;45.890;13.714;2023-03-01T09:15:37;11.38;;;5.18;;
77158;SDS011;66129;45.890;13.714;2023-03-01T09:18:03;11.85;;;6.38;;
77158;SDS011;66129;45.890;13.714;2023-03-01T09:20:30;12.80;;;5.68;;
77158;SDS011;66129;45.890;13.714;2023-03-01T09:22:56;9.02;;;5.07;;
77158;SDS011;66129;45.890;13.714;2023-03-01T09:25:22;12.75;;;6.00;;
77158;SDS011;66129;45.890;13.714;2023-03-01T09:27:50;12.60;;;4.95;;
77158;SDS011;66129;45.890;13.714;2023-03-01T09:30:17;10.13;;;5.57;;
77158;SDS011;66129;45.890;13.714;2023-03-01T09:32:43;12.55;;;5.10;;
77158;SDS011;66129;45.890;13.714;2023-03-01T09:35:10;10.80;;;4.38;;
77158;SDS011;66129;45.890;13.714;2023-03-01T09:37:36;6.53;;;3.65;;
77158;SDS011;66129;45.890;13.714;2023-03-01T09:40:03;11.98;;;4.70;;
77158;SDS011;66129;45.890;13.714;2023-03-01T09:42:34;10.60;;;5.50;;
77158;SDS011;66129;45.890;13.714;2023-03-01T09:47:33;11.55;;;5.00;;
77158;SDS011;66129;45.890;13.714;2023-03-01T09:50:05;21.50;;;5.45;;
77158;SDS011;66129;45.890;13.714;2023-03-01T09:52:37;7.43;;;4.65;;
77158;SDS011;66129;45.890;13.714;2023-03-01T09:55:15;8.20;;;4.82;;
77158;SDS011;66129;45.890;13.714;2023-03-01T09:57:55;9.48;;;4.50;;
77158;SDS011;66129;45.890;13.714;2023-03-01T10:06:21;9.80;;;5.13;;
77158;SDS011;66129;45.890;13.714;2023-03-01T10:11:48;9.93;;;5.90;;
77158;SDS011;66129;45.890;13.714;2023-03-01T10:14:34;8.23;;;5.03;;
77158;SDS011;66129;45.890;13.714;2023-03-01T10:17:04;12.10;;;5.32;;
77158;SDS011;66129;45.890;13.714;2023-03-01T10:19:33;9.32;;;5.32;;
77158;SDS011;66129;45.890;13.714;2023-03-01T10:22:09;8.73;;;5.65;;
77158;SDS011;66129;45.890;13.714;2023-03-01T10:24:37;9.13;;;5.18;;
77158;SDS011;66129;45.890;13.714;2023-03-01T10:27:05;9.45;;;5.63;;
77158;SDS011;66129;45.890;13.714;2023-03-01T10:32:19;9.68;;;5.18;;
77158;SDS011;66129;45.890;13.714;2023-03-01T10:34:47;9.38;;;5.43;;
77158;SDS011;66129;45.890;13.714;2023-03-01T10:37:17;8.30;;;4.45;;
77158;SDS011;66129;45.890;13.714;2023-03-01T10:40:03;8.43;;;4.03;;
77158;SDS011;66129;45.890;13.714;2023-03-01T10:42:34;6.25;;;4.00;;
77158;SDS011;66129;45.890;13.714;2023-03-01T10:47:44;7.18;;;4.65;;
77158;SDS011;66129;45.890;13.714;2023-03-01T10:50:21;9.80;;;5.38;;
77158;SDS011;66129;45.890;13.714;2023-03-01T10:53:01;8.90;;;5.20;;
77158;SDS011;66129;45.890;13.714;2023-03-01T10:55:41;8.00;;;4.13;;
77158;SDS011;66129;45.890;13.714;2023-03-01T10:58:08;9.90;;;4.50;;
77158;SDS011;66129;45.890;13.714;2023-03-01T11:00:57;7.43;;;5.05;;
77158;SDS011;66129;45.890;13.714;2023-03-01T11:13:34;14.23;;;5.85;;
77158;SDS011;66129;45.890;13.714;2023-03-01T11:16:02;9.57;;;5.03;;
77158;SDS011;66129;45.890;13.714;2023-03-01T11:18:34;7.68;;;5.50;;
77158;SDS011;66129;45.890;13.714;2023-03-01T11:20:59;9.88;;;6.38;;
77158;SDS011;66129;45.890;13.714;2023-03-01T11:23:28;8.95;;;4.25;;
77158;SDS011;66129;45.890;13.714;2023-03-01T11:25:57;8.88;;;5.43;;
77158;SDS011;66129;45.890;13.714;2023-03-01T11:28:33;9.55;;;4.47;;
77158;SDS011;66129;45.890;13.714;2023-03-01T11:36:53;6.60;;;5.05;;
77158;SDS011;66129;45.890;13.714;2023-03-01T11:39:43;8.35;;;4.00;;
77158;SDS011;66129;45.890;13.714;2023-03-01T11:45:18;8.73;;;4.60;;
77158;SDS011;66129;45.890;13.714;2023-03-01T11:50:49;5.75;;;3.88;;
77158;SDS011;66129;45.890;13.714;2023-03-01T11:56:04;9.50;;;4.80;;
77158;SDS011;66129;45.890;13.714;2023-03-01T12:06:44;6.65;;;4.82;;
77158;SDS011;66129;45.890;13.714;2023-03-01T12:09:27;8.27;;;6.18;;
77158;SDS011;66129;45.890;13.714;2023-03-01T12:28:35;8.15;;;4.13;;
77158;SDS011;66129;45.890;13.714;2023-03-01T12:34:49;6.57;;;3.58;;
77158;SDS011;66129;45.890;13.714;2023-03-01T12:50:57;6.57;;;4.18;;
77158;SDS011;66129;45.890;13.714;2023-03-01T12:53:07;4.80;;;3.55;;
77158;SDS011;66129;45.890;13.714;2023-03-01T12:55:59;9.52;;;4.53;;
77158;SDS011;66129;45.890;13.714;2023-03-01T13:04:17;4.90;;;3.33;;
77158;SDS011;66129;45.890;13.714;2023-03-01T13:09:25;6.32;;;3.70;;
77158;SDS011;66129;45.890;13.714;2023-03-01T13:12:02;5.22;;;3.05;;
77158;SDS011;66129;45.890;13.714;2023-03-01T13:16:56;6.55;;;2.85;;
77158;SDS011;66129;45.890;13.714;2023-03-01T13:19:22;6.05;;;3.35;;
77158;SDS011;66129;45.890;13.714;2023-03-01T13:21:49;7.78;;;3.40;;
77158;SDS011;66129;45.890;13.714;2023-03-01T13:29:48;4.65;;;2.60;;
77158;SDS011;66129;45.890;13.714;2023-03-01T13:32:42;7.72;;;4.05;;
77158;SDS011;66129;45.890;13.714;2023-03-01T13:37:36;5.22;;;2.95;;
77158;SDS011;66129;45.890;13.714;2023-03-01T13:42:45;5.63;;;3.97;;
77158;SDS011;66129;45.890;13.714;2023-03-01T13:45:20;6.15;;;3.17;;
77158;SDS011;66129;45.890;13.714;2023-03-01T13:47:47;4.88;;;2.80;;
77158;SDS011;66129;45.890;13.714;2023-03-01T13:52:57;5.97;;;3.65;;
77158;SDS011;66129;45.890;13.714;2023-03-01T13:55:36;4.18;;;2.50;;
77158;SDS011;66129;45.890;13.714;2023-03-01T13:58:43;5.50;;;3.42;;
77158;SDS011;66129;45.890;13.714;2023-03-01T14:01:20;6.13;;;3.78;;
77158;SDS011;66129;45.890;13.714;2023-03-01T14:03:55;4.97;;;3.47;;
77158;SDS011;66129;45.890;13.714;2023-03-01T14:06:22;9.55;;;4.03;;
77158;SDS011;66129;45.890;13.714;2023-03-01T14:14:31;8.00;;;4.32;;
77158;SDS011;66129;45.890;13.714;2023-03-01T14:20:03;8.40;;;3.92;;
77158;SDS011;66129;45.890;13.714;2023-03-01T14:22:49;7.97;;;4.28;;
77158;SDS011;66129;45.890;13.714;2023-03-01T14:25:22;6.32;;;3.47;;
77158;SDS011;66129;45.890;13.714;2023-03-01T14:27:54;5.28;;;3.00;;
77158;SDS011;66129;45.890;13.714;2023-03-01T14:30:27;4.63;;;2.90;;
77158;SDS011;66129;45.890;13.714;2023-03-01T14:33:00;6.43;;;3.55;;
77158;SDS011;66129;45.890;13.714;2023-03-01T14:35:29;5.43;;;3.33;;
77158;SDS011;66129;45.890;13.714;2023-03-01T14:37:57;5.05;;;3.03;;
77158;SDS011;66129;45.890;13.714;2023-03-01T14:40:33;6.25;;;3.47;;
77158;SDS011;66129;45.890;13.714;2023-03-01T14:43:01;7.13;;;3.47;;
77158;SDS011;66129;45.890;13.714;2023-03-01T14:45:34;4.38;;;3.22;;
77158;SDS011;66129;45.890;13.714;2023-03-01T14:48:01;5.18;;;3.22;;
77158;SDS011;66129;45.890;13.714;2023-03-01T14:50:29;7.65;;;3.90;;
77158;SDS011;66129;45.890;13.714;2023-03-01T14:52:58;8.18;;;4.07;;
77158;SDS011;66129;45.890;13.714;2023-03-01T14:55:33;7.85;;;3.80;;
77158;SDS011;66129;45.890;13.714;2023-03-01T14:58:05;10.07;;;4.55;;
77158;SDS011;66129;45.890;13.714;2023-03-01T15:00:37;9.35;;;4.95;;
77158;SDS011;66129;45.890;13.714;2023-03-01T15:03:07;6.68;;;3.25;;
77158;SDS011;66129;45.890;13.714;2023-03-01T15:05:38;4.88;;;3.30;;
77158;SDS011;66129;45.890;13.714;2023-03-01T15:08:05;5.80;;;3.08;;
77158;SDS011;66129;45.890;13.714;2023-03-01T15:10:32;6.90;;;3.30;;
77158;SDS011;66129;45.890;13.714;2023-03-01T15:13:10;6.95;;;3.90;;
77158;SDS011;66129;45.890;13.714;2023-03-01T15:15:46;7.03;;;3.03;;
77158;SDS011;66129;45.890;13.714;2023-03-01T15:18:14;6.47;;;3.28;;
77158;SDS011;66129;45.890;13.714;2023-03-01T15:20:48;5.97;;;3.80;;
77158;SDS011;66129;45.890;13.714;2023-03-01T15:23:25;6.38;;;3.25;;
77158;SDS011;66129;45.890;13.714;2023-03-01T15:25:53;5.25;;;2.45;;
77158;SDS011;66129;45.890;13.714;2023-03-01T15:28:24;3.55;;;2.30;;
77158;SDS011;66129;45.890;13.714;2023-03-01T15:30:53;4.43;;;2.85;;
77158;SDS011;66129;45.890;13.714;2023-03-01T15:35:52;4.82;;;3.10;;
77158;SDS011;66129;45.890;13.714;2023-03-01T15:38:26;4.38;;;2.65;;
77158;SDS011;66129;45.890;13.714;2023-03-01T15:40:52;4.15;;;2.40;;
77158;SDS011;66129;45.890;13.714;2023-03-01T15:46:04;4.70;;;2.50;;
77158;SDS011;66129;45.890;13.714;2023-03-01T15:48:32;3.80;;;2.40;;
77158;SDS011;66129;45.890;13.714;2023-03-01T15:50:58;2.92;;;1.63;;
77158;SDS011;66129;45.890;13.714;2023-03-01T15:53:24;3.05;;;1.63;;
77158;SDS011;66129;45.890;13.714;2023-03-01T15:55:52;5.38;;;2.38;;
77158;SDS011;66129;45.890;13.714;2023-03-01T15:58:22;6.47;;;3.00;;
77158;SDS011;66129;45.890;13.714;2023-03-01T16:00:49;3.92;;;2.28;;
77158;SDS011;66129;45.890;13.714;2023-03-01T16:03:20;3.38;;;1.95;;
77158;SDS011;66129;45.890;13.714;2023-03-01T16:05:50;3.70;;;2.25;;
77158;SDS011;66129;45.890;13.714;2023-03-01T16:08:16;7.63;;;3.92;;
77158;SDS011;66129;45.890;13.714;2023-03-01T16:10:43;6.40;;;2.75;;
77158;SDS011;66129;45.890;13.714;2023-03-01T16:13:12;6.05;;;3.13;;
77158;SDS011;66129;45.890;13.714;2023-03-01T16:15:38;38.67;;;23.67;;
77158;SDS011;66129;45.890;13.714;2023-03-01T16:18:04;5.03;;;2.60;;
77158;SDS011;66129;45.890;13.714;2023-03-01T16:20:31;4.53;;;2.50;;
77158;SDS011;66129;45.890;13.714;2023-03-01T16:22:57;3.15;;;2.22;;
77158;SDS011;66129;45.890;13.714;2023-03-01T16:25:25;4.70;;;2.92;;
77158;SDS011;66129;45.890;13.714;2023-03-01T16:27:50;6.97;;;3.50;;
77158;SDS011;66129;45.890;13.714;2023-03-01T16:30:18;8.95;;;4.28;;
77158;SDS011;66129;45.890;13.714;2023-03-01T16:32:45;5.78;;;3.53;;
77158;SDS011;66129;45.890;13.714;2023-03-01T16:35:13;6.15;;;4.05;;
77158;SDS011;66129;45.890;13.714;2023-03-01T16:37:40;5.40;;;3.63;;
77158;SDS011;66129;45.890;13.714;2023-03-01T16:40:07;6.72;;;2.78;;
77158;SDS011;66129;45.890;13.714;2023-03-01T16:42:58;5.10;;;3.03;;
77158;SDS011;66129;45.890;13.714;2023-03-01T16:45:35;5.47;;;3.17;;
77158;SDS011;66129;45.890;13.714;2023-03-01T16:48:01;7.35;;;3.15;;
77158;SDS011;66129;45.890;13.714;2023-03-01T16:50:27;5.68;;;2.40;;
77158;SDS011;66129;45.890;13.714;2023-03-01T16:52:53;5.82;;;3.20;;
77158;SDS011;66129;45.890;13.714;2023-03-01T16:55:18;6.28;;;2.80;;
77158;SDS011;66129;45.890;13.714;2023-03-01T16:57:44;5.10;;;2.95;;
77158;SDS011;66129;45.890;13.714;2023-03-01T17:00:10;4.97;;;3.17;;
77158;SDS011;66129;45.890;13.714;2023-03-01T17:02:37;5.13;;;2.78;;
77158;SDS011;66129;45.890;13.714;2023-03-01T17:05:04;5.13;;;2.45;;
77158;SDS011;66129;45.890;13.714;2023-03-01T17:07:30;6.28;;;3.05;;
77158;SDS011;66129;45.890;13.714;2023-03-01T17:10:01;5.45;;;2.97;;
77158;SDS011;66129;45.890;13.714;2023-03-01T17:12:28;6.47;;;3.05;;
77158;SDS011;66129;45.890;13.714;2023-03-01T17:14:54;3.95;;;2.15;;
77158;SDS011;66129;45.890;13.714;2023-03-01T17:17:19;5.90;;;3.10;;
77158;SDS011;66129;45.890;13.714;2023-03-01T17:19:45;4.90;;;2.55;;
77158;SDS011;66129;45.890;13.714;2023-03-01T17:22:11;4.57;;;2.55;;
77158;SDS011;66129;45.890;13.714;2023-03-01T17:24:39;8.57;;;4.07;;
77158;SDS011;66129;45.890;13.714;2023-03-01T17:27:05;5.35;;;2.88;;
77158;SDS011;66129;45.890;13.714;2023-03-01T17:29:32;6.63;;;3.45;;
77158;SDS011;66129;45.890;13.714;2023-03-01T17:32:02;4.68;;;2.85;;
77158;SDS011;66129;45.890;13.714;2023-03-01T17:34:31;5.47;;;3.08;;
77158;SDS011;66129;45.890;13.714;2023-03-01T17:36:58;3.08;;;2.10;;
77158;SDS011;66129;45.890;13.714;2023-03-01T17:39:23;4.25;;;2.30;;
77158;SDS011;66129;45.890;13.714;2023-03-01T17:42:00;5.32;;;2.92;;
77158;SDS011;66129;45.890;13.714;2023-03-01T17:44:27;5.47;;;3.08;;
77158;SDS011;66129;45.890;13.714;2023-03-01T17:46:52;7.13;;;2.70;;
77158;SDS011;66129;45.890;13.714;2023-03-01T17:49:20;6.05;;;3.40;;
77158;SDS011;66129;45.890;13.714;2023-03-01T17:51:46;13.95;;;5.30;;
77158;SDS011;66129;45.890;13.714;2023-03-01T17:54:12;13.90;;;4.47;;